BTK6865 WIDD-WIII
Flight info
| Callsign | BTK6865 |
|---|---|
| Flight time | 1h 19m |
| Altitude | 35000 |
| Route | ANITO B470 BUNIK |
| Aircraft | A320/M-SDE3FGHIRWY/LB1 |
Departure
| Time | 2026-05-05 15:30 |
|---|---|
| Airport | Hang Nadim International Airport (WIDD) |
Arrival
| Time | 2026-05-05 16:50 |
|---|---|
| Airport | Soekarno-Hatta International Airport (WIII) |
| Time | Latitude | Longitude | Altitude | Speed | Heading |
|---|---|---|---|---|---|
| 2026-05-05 14:15 | 1.12420 | 104.11730 | 138 ft | 0 kts | 312° |
| 2026-05-05 15:15 | 1.12411 | 104.11739 | 137 ft | 3 kts | 309° |
| 2026-05-05 15:15 | 1.12399 | 104.11756 | 137 ft | 3 kts | 304° |
| 2026-05-05 15:15 | 1.12387 | 104.11772 | 137 ft | 2 kts | 311° |
| 2026-05-05 15:16 | 1.12377 | 104.11783 | 137 ft | 3 kts | 343° |
| 2026-05-05 15:16 | 1.12360 | 104.11788 | 137 ft | 3 kts | 6° |
| 2026-05-05 15:16 | 1.12346 | 104.11781 | 137 ft | 3 kts | 41° |
| 2026-05-05 15:16 | 1.12331 | 104.11768 | 137 ft | 2 kts | 41° |
| 2026-05-05 15:17 | 1.12330 | 104.11767 | 137 ft | 0 kts | 41° |
| 2026-05-05 15:19 | 1.12332 | 104.11769 | 137 ft | 1 kts | 41° |
| 2026-05-05 15:19 | 1.12340 | 104.11776 | 137 ft | 2 kts | 41° |
| 2026-05-05 15:20 | 1.12344 | 104.11791 | 137 ft | 3 kts | 88° |
| 2026-05-05 15:20 | 1.12337 | 104.11814 | 137 ft | 4 kts | 114° |
| 2026-05-05 15:20 | 1.12327 | 104.11844 | 137 ft | 5 kts | 86° |
| 2026-05-05 15:20 | 1.12349 | 104.11878 | 138 ft | 7 kts | 50° |
| 2026-05-05 15:21 | 1.12388 | 104.11916 | 137 ft | 9 kts | 42° |
| 2026-05-05 15:21 | 1.12440 | 104.11962 | 137 ft | 11 kts | 41° |
| 2026-05-05 15:21 | 1.12502 | 104.12017 | 137 ft | 13 kts | 41° |
| 2026-05-05 15:21 | 1.12575 | 104.12081 | 137 ft | 15 kts | 42° |
| 2026-05-05 15:22 | 1.12650 | 104.12148 | 137 ft | 7 kts | 41° |
| 2026-05-05 15:22 | 1.12689 | 104.12182 | 137 ft | 8 kts | 41° |
| 2026-05-05 15:22 | 1.12730 | 104.12218 | 136 ft | 9 kts | 41° |
| 2026-05-05 15:22 | 1.12777 | 104.12259 | 137 ft | 8 kts | 41° |
| 2026-05-05 15:23 | 1.12814 | 104.12293 | 137 ft | 7 kts | 41° |
| 2026-05-05 15:23 | 1.12847 | 104.12321 | 137 ft | 6 kts | 41° |
| 2026-05-05 15:23 | 1.12885 | 104.12355 | 137 ft | 8 kts | 41° |
| 2026-05-05 15:23 | 1.12933 | 104.12398 | 137 ft | 10 kts | 41° |
| 2026-05-05 15:24 | 1.12975 | 104.12435 | 137 ft | 8 kts | 41° |
| 2026-05-05 15:24 | 1.13012 | 104.12467 | 137 ft | 6 kts | 41° |
| 2026-05-05 15:24 | 1.13049 | 104.12499 | 137 ft | 8 kts | 41° |
| 2026-05-05 15:24 | 1.13095 | 104.12539 | 137 ft | 10 kts | 41° |
| 2026-05-05 15:25 | 1.13148 | 104.12587 | 137 ft | 11 kts | 41° |
| 2026-05-05 15:25 | 1.13196 | 104.12629 | 137 ft | 7 kts | 41° |
| 2026-05-05 15:25 | 1.13235 | 104.12664 | 137 ft | 9 kts | 43° |
| 2026-05-05 15:25 | 1.13244 | 104.12723 | 137 ft | 10 kts | 112° |
| 2026-05-05 15:26 | 1.13200 | 104.12780 | 138 ft | 11 kts | 125° |
| 2026-05-05 15:26 | 1.13216 | 104.12853 | 138 ft | 12 kts | 62° |
| 2026-05-05 15:26 | 1.13275 | 104.12918 | 138 ft | 14 kts | 44° |
| 2026-05-05 15:26 | 1.13339 | 104.12976 | 137 ft | 13 kts | 41° |
| 2026-05-05 15:27 | 1.13424 | 104.12998 | 137 ft | 9 kts | 7° |
| 2026-05-05 15:27 | 1.13452 | 104.13045 | 137 ft | 4 kts | 94° |
| 2026-05-05 15:27 | 1.13431 | 104.13058 | 137 ft | 4 kts | 204° |
| 2026-05-05 15:27 | 1.13425 | 104.13053 | 137 ft | 0 kts | 220° |
| 2026-05-05 15:29 | 1.13420 | 104.13048 | 137 ft | 2 kts | 220° |
| 2026-05-05 15:29 | 1.13332 | 104.12970 | 138 ft | 47 kts | 221° |
| 2026-05-05 15:30 | 1.12917 | 104.12603 | 136 ft | 109 kts | 221° |
| 2026-05-05 15:30 | 1.12224 | 104.11991 | 138 ft | 154 kts | 221° |
| 2026-05-05 15:30 | 1.11338 | 104.11221 | 371 ft | 175 kts | 220° |
| 2026-05-05 15:30 | 1.10390 | 104.10428 | 940 ft | 180 kts | 220° |
| 2026-05-05 15:31 | 1.09465 | 104.09578 | 1471 ft | 184 kts | 222° |
| 2026-05-05 15:31 | 1.08471 | 104.08660 | 1705 ft | 206 kts | 222° |
| 2026-05-05 15:31 | 1.07373 | 104.07655 | 1917 ft | 228 kts | 222° |
| 2026-05-05 15:31 | 1.06138 | 104.06528 | 2230 ft | 253 kts | 221° |
| 2026-05-05 15:32 | 1.04619 | 104.05586 | 2832 ft | 263 kts | 198° |
| 2026-05-05 15:32 | 1.02792 | 104.05426 | 3614 ft | 268 kts | 169° |
| 2026-05-05 15:32 | 1.01084 | 104.06166 | 4406 ft | 273 kts | 141° |
| 2026-05-05 15:32 | 0.99895 | 104.07644 | 5182 ft | 276 kts | 120° |
| 2026-05-05 15:33 | 0.98946 | 104.09324 | 6003 ft | 279 kts | 119° |
| 2026-05-05 15:33 | 0.97996 | 104.11027 | 6768 ft | 282 kts | 119° |
| 2026-05-05 15:33 | 0.97037 | 104.12750 | 7513 ft | 285 kts | 119° |
| 2026-05-05 15:33 | 0.96067 | 104.14487 | 8252 ft | 288 kts | 120° |
| 2026-05-05 15:34 | 0.95084 | 104.16244 | 8995 ft | 291 kts | 120° |
| 2026-05-05 15:34 | 0.94425 | 104.17418 | 9469 ft | 293 kts | 120° |
| 2026-05-05 15:34 | 0.93075 | 104.19813 | 10285 ft | 302 kts | 120° |
| 2026-05-05 15:34 | 0.92003 | 104.21708 | 10430 ft | 325 kts | 120° |
| 2026-05-05 15:35 | 0.91253 | 104.23038 | 10513 ft | 339 kts | 120° |
| 2026-05-05 15:35 | 0.90070 | 104.25135 | 10820 ft | 351 kts | 120° |
| 2026-05-05 15:35 | 0.88453 | 104.28008 | 11560 ft | 357 kts | 119° |
| 2026-05-05 15:35 | 0.87646 | 104.29442 | 11947 ft | 359 kts | 119° |
| 2026-05-05 15:36 | 0.86420 | 104.31621 | 12527 ft | 361 kts | 119° |
| 2026-05-05 15:36 | 0.85183 | 104.33819 | 13111 ft | 364 kts | 119° |
| 2026-05-05 15:36 | 0.83939 | 104.36029 | 13690 ft | 366 kts | 119° |
| 2026-05-05 15:36 | 0.82688 | 104.38255 | 14200 ft | 369 kts | 119° |
| 2026-05-05 15:37 | 0.81424 | 104.40502 | 14700 ft | 372 kts | 119° |
| 2026-05-05 15:37 | 0.80153 | 104.42761 | 15191 ft | 374 kts | 119° |
| 2026-05-05 15:37 | 0.78871 | 104.45033 | 15680 ft | 377 kts | 119° |
| 2026-05-05 15:37 | 0.77577 | 104.47325 | 16159 ft | 380 kts | 119° |
| 2026-05-05 15:38 | 0.76277 | 104.49628 | 16638 ft | 382 kts | 118° |
| 2026-05-05 15:38 | 0.74967 | 104.51950 | 17120 ft | 385 kts | 118° |
| 2026-05-05 15:38 | 0.73474 | 104.54180 | 17572 ft | 389 kts | 129° |
| 2026-05-05 15:38 | 0.71535 | 104.56076 | 18033 ft | 393 kts | 141° |
| 2026-05-05 15:39 | 0.69217 | 104.57543 | 18440 ft | 397 kts | 153° |
| 2026-05-05 15:39 | 0.66616 | 104.58508 | 18827 ft | 401 kts | 162° |
| 2026-05-05 15:39 | 0.63926 | 104.59291 | 19220 ft | 404 kts | 162° |
| 2026-05-05 15:39 | 0.61225 | 104.60085 | 19615 ft | 406 kts | 162° |
| 2026-05-05 15:40 | 0.58508 | 104.60891 | 20005 ft | 409 kts | 162° |
| 2026-05-05 15:40 | 0.55810 | 104.61696 | 20399 ft | 411 kts | 162° |
| 2026-05-05 15:40 | 0.53057 | 104.62519 | 20792 ft | 414 kts | 162° |
| 2026-05-05 15:40 | 0.50252 | 104.63356 | 21183 ft | 417 kts | 162° |
| 2026-05-05 15:41 | 0.47505 | 104.64177 | 21550 ft | 419 kts | 162° |
| 2026-05-05 15:41 | 0.44702 | 104.65014 | 21914 ft | 422 kts | 161° |
| 2026-05-05 15:41 | 0.41881 | 104.65854 | 22265 ft | 424 kts | 161° |
| 2026-05-05 15:41 | 0.39004 | 104.66705 | 22613 ft | 427 kts | 162° |
| 2026-05-05 15:42 | 0.36144 | 104.67547 | 22955 ft | 429 kts | 162° |
| 2026-05-05 15:42 | 0.33271 | 104.68394 | 23287 ft | 432 kts | 162° |
| 2026-05-05 15:42 | 0.30383 | 104.69246 | 23595 ft | 434 kts | 162° |
| 2026-05-05 15:42 | 0.27516 | 104.70094 | 23869 ft | 436 kts | 161° |
| 2026-05-05 15:43 | 0.24559 | 104.70971 | 24167 ft | 438 kts | 161° |
| 2026-05-05 15:43 | 0.21630 | 104.71837 | 24456 ft | 440 kts | 162° |
| 2026-05-05 15:43 | 0.18691 | 104.72704 | 24741 ft | 441 kts | 162° |
| 2026-05-05 15:43 | 0.15745 | 104.73574 | 25022 ft | 443 kts | 162° |
| 2026-05-05 15:44 | 0.12778 | 104.74452 | 25309 ft | 445 kts | 161° |
| 2026-05-05 15:44 | 0.09803 | 104.75336 | 25576 ft | 447 kts | 161° |
| 2026-05-05 15:44 | 0.06820 | 104.76223 | 25854 ft | 449 kts | 162° |
| 2026-05-05 15:44 | 0.03821 | 104.77114 | 26128 ft | 450 kts | 162° |
| 2026-05-05 15:45 | 0.00813 | 104.78007 | 26396 ft | 452 kts | 162° |
| 2026-05-05 15:45 | -0.02209 | 104.78903 | 26663 ft | 454 kts | 162° |
| 2026-05-05 15:45 | -0.05242 | 104.79802 | 26930 ft | 455 kts | 162° |
| 2026-05-05 15:45 | -0.08289 | 104.80705 | 27197 ft | 457 kts | 162° |
| 2026-05-05 15:46 | -0.11344 | 104.81611 | 27461 ft | 459 kts | 162° |
| 2026-05-05 15:46 | -0.14409 | 104.82519 | 27726 ft | 461 kts | 162° |
| 2026-05-05 15:46 | -0.17489 | 104.83436 | 27989 ft | 463 kts | 162° |
| 2026-05-05 15:46 | -0.20577 | 104.84358 | 28258 ft | 464 kts | 162° |
| 2026-05-05 15:47 | -0.23678 | 104.85283 | 28557 ft | 465 kts | 162° |
| 2026-05-05 15:47 | -0.25729 | 104.85899 | 28817 ft | 464 kts | 160° |
| 2026-05-05 15:47 | -0.29623 | 104.87598 | 29336 ft | 461 kts | 148° |
| 2026-05-05 15:47 | -0.32339 | 104.89368 | 29719 ft | 459 kts | 144° |
| 2026-05-05 15:48 | -0.34977 | 104.91158 | 30090 ft | 458 kts | 144° |
| 2026-05-05 15:48 | -0.37617 | 104.92942 | 30434 ft | 458 kts | 144° |
| 2026-05-05 15:48 | -0.40254 | 104.94723 | 30768 ft | 457 kts | 144° |
| 2026-05-05 15:48 | -0.42884 | 104.96501 | 31115 ft | 456 kts | 144° |
| 2026-05-05 15:49 | -0.45503 | 104.98276 | 31472 ft | 455 kts | 144° |
| 2026-05-05 15:49 | -0.48114 | 105.00048 | 31848 ft | 453 kts | 144° |
| 2026-05-05 15:49 | -0.50724 | 105.01815 | 32220 ft | 452 kts | 144° |
| 2026-05-05 15:49 | -0.53324 | 105.03578 | 32607 ft | 451 kts | 144° |
| 2026-05-05 15:50 | -0.55919 | 105.05331 | 32988 ft | 450 kts | 144° |
| 2026-05-05 15:50 | -0.58511 | 105.07077 | 33370 ft | 449 kts | 144° |
| 2026-05-05 15:50 | -0.61093 | 105.08818 | 33744 ft | 447 kts | 144° |
| 2026-05-05 15:50 | -0.63669 | 105.10561 | 34081 ft | 446 kts | 144° |
| 2026-05-05 15:51 | -0.66235 | 105.12300 | 34386 ft | 445 kts | 144° |
| 2026-05-05 15:51 | -0.68796 | 105.14036 | 34685 ft | 445 kts | 144° |
| 2026-05-05 15:51 | -0.71325 | 105.15751 | 34866 ft | 445 kts | 144° |
| 2026-05-05 15:52 | -0.76502 | 105.19254 | 34914 ft | 455 kts | 144° |
| 2026-05-05 15:52 | -0.81760 | 105.22816 | 34916 ft | 457 kts | 144° |
| 2026-05-05 15:53 | -0.87031 | 105.26385 | 34911 ft | 458 kts | 144° |
| 2026-05-05 15:53 | -0.92344 | 105.29973 | 34913 ft | 458 kts | 144° |
| 2026-05-05 15:54 | -0.97583 | 105.33523 | 34916 ft | 458 kts | 144° |
| 2026-05-05 15:54 | -1.02856 | 105.37098 | 34919 ft | 458 kts | 144° |
| 2026-05-05 15:55 | -1.08144 | 105.40669 | 34921 ft | 459 kts | 144° |
| 2026-05-05 15:55 | -1.13433 | 105.44242 | 34924 ft | 459 kts | 144° |
| 2026-05-05 15:56 | -1.18716 | 105.47829 | 34926 ft | 459 kts | 144° |
| 2026-05-05 15:56 | -1.24006 | 105.51418 | 34926 ft | 460 kts | 144° |
| 2026-05-05 15:57 | -1.29301 | 105.54996 | 34926 ft | 460 kts | 144° |
| 2026-05-05 15:57 | -1.34606 | 105.58581 | 34929 ft | 460 kts | 144° |
| 2026-05-05 15:58 | -1.39906 | 105.62173 | 34931 ft | 460 kts | 144° |
| 2026-05-05 15:58 | -1.45207 | 105.65765 | 34927 ft | 461 kts | 144° |
| 2026-05-05 15:59 | -1.50512 | 105.69358 | 34936 ft | 461 kts | 144° |
| 2026-05-05 15:59 | -1.55824 | 105.72954 | 34932 ft | 461 kts | 144° |
| 2026-05-05 16:00 | -1.61133 | 105.76545 | 34932 ft | 461 kts | 144° |
| 2026-05-05 16:00 | -1.66446 | 105.80147 | 34931 ft | 461 kts | 144° |
| 2026-05-05 16:01 | -1.71756 | 105.83743 | 34932 ft | 461 kts | 144° |
| 2026-05-05 16:01 | -1.77072 | 105.87343 | 34935 ft | 461 kts | 144° |
| 2026-05-05 16:02 | -1.82389 | 105.90939 | 34935 ft | 461 kts | 144° |
| 2026-05-05 16:02 | -1.87701 | 105.94538 | 34935 ft | 461 kts | 144° |
| 2026-05-05 16:03 | -1.93016 | 105.98138 | 34932 ft | 461 kts | 144° |
| 2026-05-05 16:03 | -1.98332 | 106.01739 | 34932 ft | 461 kts | 144° |
| 2026-05-05 16:04 | -2.03644 | 106.05347 | 34935 ft | 461 kts | 144° |
| 2026-05-05 16:04 | -2.08955 | 106.08950 | 34928 ft | 461 kts | 144° |
| 2026-05-05 16:05 | -2.14296 | 106.12516 | 34929 ft | 462 kts | 149° |
| 2026-05-05 16:05 | -2.20286 | 106.14823 | 34935 ft | 465 kts | 167° |
| 2026-05-05 16:06 | -2.26620 | 106.15908 | 34930 ft | 465 kts | 169° |
| 2026-05-05 16:06 | -2.33003 | 106.16994 | 34931 ft | 465 kts | 169° |
| 2026-05-05 16:07 | -2.39391 | 106.18088 | 34931 ft | 465 kts | 169° |
| 2026-05-05 16:07 | -2.45775 | 106.19180 | 34929 ft | 465 kts | 169° |
| 2026-05-05 16:08 | -2.52157 | 106.20277 | 34929 ft | 465 kts | 169° |
| 2026-05-05 16:08 | -2.58538 | 106.21368 | 34932 ft | 465 kts | 169° |
| 2026-05-05 16:09 | -2.64921 | 106.22453 | 34932 ft | 465 kts | 169° |
| 2026-05-05 16:09 | -2.71295 | 106.23548 | 34933 ft | 465 kts | 169° |
| 2026-05-05 16:10 | -2.77672 | 106.24642 | 34932 ft | 465 kts | 169° |
| 2026-05-05 16:10 | -2.84042 | 106.25733 | 34930 ft | 464 kts | 169° |
| 2026-05-05 16:11 | -2.90413 | 106.26818 | 34927 ft | 464 kts | 169° |
| 2026-05-05 16:12 | -3.03155 | 106.29012 | 34927 ft | 465 kts | 169° |
| 2026-05-05 16:13 | -3.19110 | 106.31732 | 34927 ft | 465 kts | 169° |
| 2026-05-05 16:13 | -3.25493 | 106.32824 | 34924 ft | 466 kts | 169° |
| 2026-05-05 16:14 | -3.38270 | 106.35013 | 34929 ft | 466 kts | 169° |
| 2026-05-05 16:15 | -3.51065 | 106.37211 | 34931 ft | 467 kts | 169° |
| 2026-05-05 16:16 | -3.57425 | 106.38294 | 34911 ft | 454 kts | 169° |
| 2026-05-05 16:16 | -3.63583 | 106.38381 | 34916 ft | 450 kts | 195° |
| 2026-05-05 16:17 | -3.68908 | 106.35100 | 34918 ft | 459 kts | 230° |
| 2026-05-05 16:17 | -3.70663 | 106.32440 | 34917 ft | 460 kts | 246° |
| 2026-05-05 16:18 | -3.71599 | 106.26206 | 34915 ft | 458 kts | 280° |
| 2026-05-05 16:18 | -3.71104 | 106.24164 | 34914 ft | 456 kts | 291° |
| 2026-05-05 16:18 | -3.67451 | 106.19123 | 34915 ft | 451 kts | 326° |
| 2026-05-05 16:19 | -3.64714 | 106.17637 | 34899 ft | 448 kts | 343° |
| 2026-05-05 16:19 | -3.61658 | 106.17133 | 34907 ft | 448 kts | 3° |
| 2026-05-05 16:19 | -3.55878 | 106.19197 | 34915 ft | 450 kts | 41° |
| 2026-05-05 16:20 | -3.52643 | 106.24430 | 34913 ft | 451 kts | 79° |
| 2026-05-05 16:20 | -3.53406 | 106.30564 | 34916 ft | 455 kts | 117° |
| 2026-05-05 16:21 | -3.57687 | 106.35203 | 34922 ft | 460 kts | 139° |
| 2026-05-05 16:22 | -3.66109 | 106.39793 | 34920 ft | 474 kts | 165° |
| 2026-05-05 16:22 | -3.72683 | 106.41063 | 34915 ft | 486 kts | 168° |
| 2026-05-05 16:23 | -3.79362 | 106.42313 | 34918 ft | 489 kts | 168° |
| 2026-05-05 16:23 | -3.89361 | 106.44188 | 34916 ft | 490 kts | 168° |
| 2026-05-05 16:24 | -3.96061 | 106.45441 | 34917 ft | 490 kts | 168° |
| 2026-05-05 16:25 | -4.06112 | 106.47320 | 34917 ft | 490 kts | 168° |
| 2026-05-05 16:25 | -4.16165 | 106.49209 | 34919 ft | 490 kts | 168° |
| 2026-05-05 16:26 | -4.29547 | 106.51708 | 34099 ft | 488 kts | 168° |
| 2026-05-05 16:27 | -4.32880 | 106.52335 | 33567 ft | 484 kts | 168° |
| 2026-05-05 16:27 | -4.36151 | 106.52950 | 33296 ft | 474 kts | 168° |
| 2026-05-05 16:27 | -4.39390 | 106.53559 | 32517 ft | 475 kts | 168° |
| 2026-05-05 16:27 | -4.42655 | 106.54173 | 31623 ft | 480 kts | 168° |
| 2026-05-05 16:28 | -4.45933 | 106.54786 | 30967 ft | 479 kts | 168° |
| 2026-05-05 16:28 | -4.49212 | 106.55399 | 30240 ft | 479 kts | 168° |
| 2026-05-05 16:28 | -4.52492 | 106.56012 | 29422 ft | 480 kts | 168° |
| 2026-05-05 16:28 | -4.55765 | 106.56623 | 28793 ft | 475 kts | 168° |
| 2026-05-05 16:29 | -4.58994 | 106.57228 | 28226 ft | 469 kts | 168° |
| 2026-05-05 16:29 | -4.62141 | 106.57817 | 27639 ft | 464 kts | 168° |
| 2026-05-05 16:29 | -4.65301 | 106.58412 | 27037 ft | 460 kts | 168° |
| 2026-05-05 16:29 | -4.68424 | 106.59003 | 26738 ft | 453 kts | 168° |
| 2026-05-05 16:30 | -4.71536 | 106.59590 | 26568 ft | 454 kts | 168° |
| 2026-05-05 16:30 | -4.74631 | 106.60173 | 25950 ft | 451 kts | 168° |
| 2026-05-05 16:30 | -4.77707 | 106.60753 | 25372 ft | 448 kts | 168° |
| 2026-05-05 16:30 | -4.80739 | 106.61321 | 24923 ft | 441 kts | 168° |
| 2026-05-05 16:31 | -4.83750 | 106.61885 | 24389 ft | 438 kts | 168° |
| 2026-05-05 16:31 | -4.86675 | 106.62645 | 24368 ft | 436 kts | 159° |
| 2026-05-05 16:31 | -4.89465 | 106.63807 | 23967 ft | 433 kts | 154° |
| 2026-05-05 16:31 | -4.92199 | 106.65049 | 23522 ft | 427 kts | 154° |
| 2026-05-05 16:32 | -4.94880 | 106.66285 | 23514 ft | 416 kts | 153° |
| 2026-05-05 16:32 | -4.97402 | 106.67469 | 23507 ft | 386 kts | 153° |
| 2026-05-05 16:32 | -4.99746 | 106.68571 | 23499 ft | 358 kts | 153° |
| 2026-05-05 16:32 | -5.02025 | 106.69629 | 23503 ft | 369 kts | 154° |
| 2026-05-05 16:33 | -5.04405 | 106.70713 | 23510 ft | 382 kts | 154° |
| 2026-05-05 16:33 | -5.06865 | 106.71826 | 22915 ft | 394 kts | 154° |
| 2026-05-05 16:33 | -5.09403 | 106.72973 | 21790 ft | 407 kts | 154° |
| 2026-05-05 16:33 | -5.11994 | 106.74146 | 21236 ft | 403 kts | 154° |
| 2026-05-05 16:34 | -5.14481 | 106.75269 | 21047 ft | 382 kts | 154° |
| 2026-05-05 16:34 | -5.16856 | 106.76346 | 20433 ft | 374 kts | 154° |
| 2026-05-05 16:34 | -5.19275 | 106.77449 | 19353 ft | 390 kts | 154° |
| 2026-05-05 16:34 | -5.21747 | 106.78573 | 18945 ft | 386 kts | 154° |
| 2026-05-05 16:35 | -5.24219 | 106.79693 | 17989 ft | 396 kts | 154° |
| 2026-05-05 16:35 | -5.26706 | 106.80821 | 17337 ft | 390 kts | 154° |
| 2026-05-05 16:35 | -5.29100 | 106.81903 | 17207 ft | 365 kts | 154° |
| 2026-05-05 16:35 | -5.31342 | 106.82915 | 17081 ft | 343 kts | 154° |
| 2026-05-05 16:36 | -5.33467 | 106.83874 | 16762 ft | 330 kts | 154° |
| 2026-05-05 16:36 | -5.35567 | 106.84826 | 16258 ft | 324 kts | 154° |
| 2026-05-05 16:36 | -5.37609 | 106.85753 | 15733 ft | 320 kts | 154° |
| 2026-05-05 16:36 | -5.39604 | 106.86660 | 15210 ft | 317 kts | 154° |
| 2026-05-05 16:37 | -5.41609 | 106.87571 | 14691 ft | 315 kts | 154° |
| 2026-05-05 16:37 | -5.43596 | 106.88474 | 14177 ft | 312 kts | 154° |
| 2026-05-05 16:37 | -5.45569 | 106.89369 | 13673 ft | 310 kts | 155° |
| 2026-05-05 16:37 | -5.47619 | 106.90002 | 13120 ft | 309 kts | 169° |
| 2026-05-05 16:38 | -5.49755 | 106.90143 | 12563 ft | 308 kts | 179° |
| 2026-05-05 16:38 | -5.51887 | 106.90104 | 12014 ft | 306 kts | 179° |
| 2026-05-05 16:38 | -5.54018 | 106.90070 | 11408 ft | 308 kts | 179° |
| 2026-05-05 16:38 | -5.56163 | 106.90040 | 11072 ft | 307 kts | 179° |
| 2026-05-05 16:39 | -5.58296 | 106.90011 | 10751 ft | 306 kts | 179° |
| 2026-05-05 16:39 | -5.60442 | 106.89982 | 10390 ft | 303 kts | 179° |
| 2026-05-05 16:39 | -5.62544 | 106.89951 | 9960 ft | 302 kts | 179° |
| 2026-05-05 16:39 | -5.64635 | 106.89920 | 9509 ft | 299 kts | 179° |
| 2026-05-05 16:40 | -5.66687 | 106.89889 | 9046 ft | 297 kts | 179° |
| 2026-05-05 16:40 | -5.68749 | 106.89858 | 8592 ft | 296 kts | 179° |
| 2026-05-05 16:40 | -5.70799 | 106.89828 | 8162 ft | 294 kts | 179° |
| 2026-05-05 16:40 | -5.72815 | 106.89798 | 7989 ft | 288 kts | 179° |
| 2026-05-05 16:41 | -5.74844 | 106.89760 | 7932 ft | 289 kts | 179° |
| 2026-05-05 16:41 | -5.76857 | 106.89718 | 7474 ft | 291 kts | 179° |
| 2026-05-05 16:41 | -5.78872 | 106.89673 | 7085 ft | 287 kts | 179° |
| 2026-05-05 16:41 | -5.80867 | 106.89628 | 6504 ft | 286 kts | 179° |
| 2026-05-05 16:42 | -5.82846 | 106.89582 | 5938 ft | 284 kts | 179° |
| 2026-05-05 16:42 | -5.84813 | 106.89538 | 5371 ft | 281 kts | 179° |
| 2026-05-05 16:42 | -5.86763 | 106.89492 | 4811 ft | 279 kts | 179° |
| 2026-05-05 16:42 | -5.88697 | 106.89449 | 4242 ft | 277 kts | 179° |
| 2026-05-05 16:43 | -5.90572 | 106.89410 | 3891 ft | 271 kts | 179° |
| 2026-05-05 16:43 | -5.92453 | 106.89371 | 3590 ft | 267 kts | 179° |
| 2026-05-05 16:43 | -5.94272 | 106.89325 | 3295 ft | 256 kts | 182° |
| 2026-05-05 16:43 | -5.95979 | 106.88947 | 3008 ft | 248 kts | 200° |
| 2026-05-05 16:44 | -5.97438 | 106.88112 | 2832 ft | 235 kts | 217° |
| 2026-05-05 16:44 | -5.98632 | 106.87080 | 2700 ft | 226 kts | 219° |
| 2026-05-05 16:44 | -5.99802 | 106.86067 | 2557 ft | 218 kts | 219° |
| 2026-05-05 16:44 | -6.00868 | 106.85146 | 2426 ft | 212 kts | 219° |
| 2026-05-05 16:45 | -6.01957 | 106.84207 | 2293 ft | 209 kts | 218° |
| 2026-05-05 16:45 | -6.03055 | 106.83259 | 2156 ft | 208 kts | 219° |
| 2026-05-05 16:45 | -6.04108 | 106.82263 | 2063 ft | 209 kts | 231° |
| 2026-05-05 16:45 | -6.04800 | 106.80985 | 1999 ft | 209 kts | 248° |
| 2026-05-05 16:46 | -6.05315 | 106.79672 | 2019 ft | 193 kts | 248° |
| 2026-05-05 16:46 | -6.05793 | 106.78477 | 1995 ft | 175 kts | 247° |
| 2026-05-05 16:46 | -6.06231 | 106.77381 | 2004 ft | 166 kts | 247° |
| 2026-05-05 16:46 | -6.06654 | 106.76322 | 1894 ft | 161 kts | 247° |
| 2026-05-05 16:47 | -6.07069 | 106.75282 | 1711 ft | 159 kts | 247° |
| 2026-05-05 16:47 | -6.07478 | 106.74259 | 1525 ft | 157 kts | 247° |
| 2026-05-05 16:47 | -6.07884 | 106.73242 | 1331 ft | 155 kts | 247° |
| 2026-05-05 16:47 | -6.08286 | 106.72235 | 1132 ft | 155 kts | 247° |
| 2026-05-05 16:48 | -6.08685 | 106.71237 | 931 ft | 153 kts | 247° |
| 2026-05-05 16:48 | -6.08754 | 106.71062 | 908 ft | 153 kts | 246° |
| 2026-05-05 16:48 | -6.09120 | 106.70149 | 723 ft | 154 kts | 248° |
| 2026-05-05 16:48 | -6.09514 | 106.69159 | 522 ft | 152 kts | 248° |
| 2026-05-05 16:49 | -6.09898 | 106.68178 | 325 ft | 150 kts | 248° |
| 2026-05-05 16:49 | -6.10288 | 106.67208 | 138 ft | 149 kts | 249° |
| 2026-05-05 16:49 | -6.10663 | 106.66270 | 41 ft | 135 kts | 248° |
| 2026-05-05 16:49 | -6.10958 | 106.65536 | 42 ft | 89 kts | 248° |
| 2026-05-05 16:50 | -6.11146 | 106.65064 | 40 ft | 63 kts | 248° |
| 2026-05-05 16:50 | -6.11287 | 106.64814 | 42 ft | 21 kts | 224° |
| 2026-05-05 16:50 | -6.11384 | 106.64739 | 40 ft | 14 kts | 217° |
| 2026-05-05 16:50 | -6.11455 | 106.64711 | 40 ft | 13 kts | 179° |
| 2026-05-05 16:51 | -6.11545 | 106.64744 | 39 ft | 15 kts | 154° |
| 2026-05-05 16:51 | -6.11637 | 106.64784 | 42 ft | 14 kts | 158° |
| 2026-05-05 16:51 | -6.11729 | 106.64786 | 43 ft | 15 kts | 206° |
| 2026-05-05 16:51 | -6.11814 | 106.64720 | 42 ft | 11 kts | 222° |
| 2026-05-05 16:52 | -6.11881 | 106.64664 | 41 ft | 14 kts | 218° |
| 2026-05-05 16:52 | -6.11967 | 106.64671 | 39 ft | 16 kts | 112° |
| 2026-05-05 16:52 | -6.11937 | 106.64783 | 39 ft | 15 kts | 68° |
| 2026-05-05 16:52 | -6.11894 | 106.64890 | 39 ft | 18 kts | 68° |
| 2026-05-05 16:53 | -6.11845 | 106.65012 | 39 ft | 20 kts | 68° |
| 2026-05-05 16:53 | -6.11796 | 106.65134 | 39 ft | 17 kts | 69° |
| 2026-05-05 16:53 | -6.11794 | 106.65220 | 37 ft | 13 kts | 136° |
| 2026-05-05 16:53 | -6.11879 | 106.65269 | 37 ft | 15 kts | 135° |
| 2026-05-05 16:54 | -6.11947 | 106.65359 | 38 ft | 15 kts | 124° |
| 2026-05-05 16:54 | -6.11947 | 106.65441 | 38 ft | 10 kts | 69° |
| 2026-05-05 16:54 | -6.11933 | 106.65490 | 38 ft | 7 kts | 95° |
| 2026-05-05 16:54 | -6.11968 | 106.65504 | 38 ft | 4 kts | 176° |
| 2026-05-05 16:55 | -6.11991 | 106.65503 | 38 ft | 2 kts | 183° |
| 2026-05-05 16:55 | -6.12007 | 106.65502 | 38 ft | 0 kts | 183° |